Leominster, MA (01453)

2:03 PM EDT on August 29, 2014 (GMT -0400)
Fallbrook/Sholan Area | Change Station
CLOSE
Current Station
Personal Weather Station
Location: Leominster, MA
Elevation: 595 ft
Nearby Weather Stations

Elev 595 ft 42.50 °N, 71.77 °W | Updated 12 seconds ago

Scattered Clouds
Scattered Clouds
74.0 °F
Feels Like 77 °F
N
0.0
Wind Variable Wind from SSW
Gusts 0.0 mph

Today
High -- | Low -- °F
--% Chance of Precip.
Yesterday
High -- | Low -- °F
Precip. -- in
6:08 AM 7:26 PM
Waxing Crescent, 15% visible
Pressure 30.19 in
Visibility 10.0 miles
Clouds Scattered Clouds 5000 ft
Heat Index 77 °F
Dew Point 55 °F
Humidity 51%
Rainfall 0.00 in
Snow Depth Not available.
UV 7 out of 12
Pollen 9.20 out of 12
Air Quality Not available.
Flu Activity Not available.
METAR KFIT 291752Z AUTO 14008KT 10SM SCT050 24/11 A3019 RMK AO2 SLP223 T02440106 10244 20172 58001

More Conditions Fewer Conditions

Pressure 30.19 in
Visibility 10.0 miles
Clouds Scattered Clouds 5000 ft
Heat Index 77 °F
Dew Point 55 °F
Humidity 51%
Rainfall 0.00 in
Snow Depth Not available.
UV 7 out of 12
Pollen 9.20 out of 12
Air Quality Not available.
Flu Activity Not available.
METAR KFIT 291752Z AUTO 14008KT 10SM SCT050 24/11 A3019 RMK AO2 SLP223 T02440106 10244 20172 58001

More Conditions Fewer Conditions

10-Day Weather Forecast

Almanac

Astronomy

Aug. 29, 2014 Rise Set
Actual Time 6:08 AM EDT 7:26 PM EDT
Civil Twilight 5:39 AM EDT 7:55 PM EDT
Nautical Twilight 5:04 AM EDT 8:30 PM EDT
Astronomical Twilight 4:27 AM EDT 9:07 PM EDT
Moon 10:01 AM EDT 9:16 PM EDT
Length of Visible Light 14h 15m
Length of Day
13h 17m
Tomorrow will be 2m 45s shorter.
Waxing Crescent, 15% of the Moon is Illuminated
Today
Waxing Crescent
Sep 2
First Quarter
Sep 8
Full
Sep 15
Last Quarter
Sep 24
New

Today's Extremes

State Highs State Lows

Community

WunderPhotos

Upload Photos

1,748,307 photos uploaded!

Nearby

Air Quality

  Air Quality AQ Index Pollutant
Friday Good
PM2.5
Friday Good
OZONE

Snow Depth

Station Depth Elevation
No new snow has been reported.

Earthquake Activity

City Distance Mag. Time & Date
No recent earthquake activity has been reported nearby.
Minimum magnitude displayed is 2.5.

Coastal Water Temperatures

Place Temperature
No Stations Reporting

Nearby Weather Stations